sensor_id;sensor_type;location;lat;lon;timestamp;pressure;altitude;pressure_sealevel;temperature;humidity
59009;BME280;44794;42.652;23.318;2023-08-30T00:01:29;93537.84;;;19.11;100.00
59009;BME280;44794;42.652;23.318;2023-08-30T00:03:55;93531.38;;;19.13;100.00
59009;BME280;44794;42.652;23.318;2023-08-30T00:06:20;93530.47;;;19.06;100.00
59009;BME280;44794;42.652;23.318;2023-08-30T00:08:45;93541.06;;;19.13;100.00
59009;BME280;44794;42.652;23.318;2023-08-30T00:11:11;93564.03;;;19.19;100.00
59009;BME280;44794;42.652;23.318;2023-08-30T00:13:36;93565.94;;;19.10;100.00
59009;BME280;44794;42.652;23.318;2023-08-30T00:16:01;93559.63;;;19.05;100.00
59009;BME280;44794;42.652;23.318;2023-08-30T00:18:28;93592.75;;;18.99;100.00
59009;BME280;44794;42.652;23.318;2023-08-30T00:20:54;93597.25;;;19.05;100.00
59009;BME280;44794;42.652;23.318;2023-08-30T00:23:20;93611.41;;;19.04;100.00
59009;BME280;44794;42.652;23.318;2023-08-30T00:25:45;93602.72;;;19.04;100.00
59009;BME280;44794;42.652;23.318;2023-08-30T00:28:11;93617.69;;;19.03;100.00
59009;BME280;44794;42.652;23.318;2023-08-30T00:30:36;93621.31;;;19.02;100.00
59009;BME280;44794;42.652;23.318;2023-08-30T00:33:02;93619.69;;;19.01;100.00
59009;BME280;44794;42.652;23.318;2023-08-30T00:35:28;93624.69;;;19.11;100.00
59009;BME280;44794;42.652;23.318;2023-08-30T00:37:54;93616.31;;;19.07;100.00
59009;BME280;44794;42.652;23.318;2023-08-30T00:40:23;93612.06;;;19.06;100.00
59009;BME280;44794;42.652;23.318;2023-08-30T00:42:49;93619.94;;;19.06;100.00
59009;BME280;44794;42.652;23.318;2023-08-30T00:45:15;93625.31;;;18.98;100.00
59009;BME280;44794;42.652;23.318;2023-08-30T00:47:40;93624.78;;;18.88;100.00
59009;BME280;44794;42.652;23.318;2023-08-30T00:50:06;93632.00;;;18.80;100.00
59009;BME280;44794;42.652;23.318;2023-08-30T00:52:32;93636.06;;;18.83;100.00
59009;BME280;44794;42.652;23.318;2023-08-30T00:54:58;93641.41;;;18.89;100.00
59009;BME280;44794;42.652;23.318;2023-08-30T00:57:24;93634.72;;;18.86;100.00
59009;BME280;44794;42.652;23.318;2023-08-30T00:59:51;93627.31;;;18.96;100.00
59009;BME280;44794;42.652;23.318;2023-08-30T01:02:18;93619.97;;;18.92;100.00
59009;BME280;44794;42.652;23.318;2023-08-30T01:04:45;93617.94;;;18.87;100.00
59009;BME280;44794;42.652;23.318;2023-08-30T01:07:10;93619.16;;;18.91;100.00
59009;BME280;44794;42.652;23.318;2023-08-30T01:09:36;93627.88;;;18.92;100.00
59009;BME280;44794;42.652;23.318;2023-08-30T01:12:06;93624.78;;;18.88;100.00
59009;BME280;44794;42.652;23.318;2023-08-30T01:14:53;93630.88;;;18.89;100.00
59009;BME280;44794;42.652;23.318;2023-08-30T01:17:22;93644.25;;;18.87;100.00
59009;BME280;44794;42.652;23.318;2023-08-30T01:20:01;93641.09;;;18.98;100.00
59009;BME280;44794;42.652;23.318;2023-08-30T01:23:07;93660.69;;;19.10;100.00
59009;BME280;44794;42.652;23.318;2023-08-30T01:28:23;93670.66;;;19.29;100.00
59009;BME280;44794;42.652;23.318;2023-08-30T01:30:49;93666.97;;;19.30;100.00
59009;BME280;44794;42.652;23.318;2023-08-30T01:33:16;93667.13;;;19.22;100.00
59009;BME280;44794;42.652;23.318;2023-08-30T01:35:43;93671.00;;;19.26;100.00
59009;BME280;44794;42.652;23.318;2023-08-30T01:38:09;93668.38;;;19.26;100.00
59009;BME280;44794;42.652;23.318;2023-08-30T01:40:37;93667.44;;;19.34;100.00
59009;BME280;44794;42.652;23.318;2023-08-30T01:43:06;93678.34;;;19.31;100.00
59009;BME280;44794;42.652;23.318;2023-08-30T01:45:35;93679.34;;;19.30;100.00
59009;BME280;44794;42.652;23.318;2023-08-30T01:48:03;93671.53;;;19.36;100.00
59009;BME280;44794;42.652;23.318;2023-08-30T01:50:31;93670.78;;;19.42;100.00
59009;BME280;44794;42.652;23.318;2023-08-30T01:52:57;93664.13;;;19.46;100.00
59009;BME280;44794;42.652;23.318;2023-08-30T01:55:23;93670.00;;;19.48;100.00
59009;BME280;44794;42.652;23.318;2023-08-30T01:57:50;93672.00;;;19.46;100.00
59009;BME280;44794;42.652;23.318;2023-08-30T02:00:15;93678.56;;;19.50;100.00
59009;BME280;44794;42.652;23.318;2023-08-30T02:02:41;93665.63;;;19.55;100.00
59009;BME280;44794;42.652;23.318;2023-08-30T02:05:06;93671.00;;;19.47;99.76
59009;BME280;44794;42.652;23.318;2023-08-30T02:08:03;93673.72;;;19.54;99.58
59009;BME280;44794;42.652;23.318;2023-08-30T02:10:35;93654.22;;;19.48;98.85
59009;BME280;44794;42.652;23.318;2023-08-30T02:13:03;93665.19;;;19.52;97.25
59009;BME280;44794;42.652;23.318;2023-08-30T02:15:30;93673.88;;;19.52;97.36
59009;BME280;44794;42.652;23.318;2023-08-30T02:17:57;93669.50;;;19.59;98.56
59009;BME280;44794;42.652;23.318;2023-08-30T02:20:23;93657.16;;;19.60;100.00
59009;BME280;44794;42.652;23.318;2023-08-30T02:22:48;93654.56;;;19.45;100.00
59009;BME280;44794;42.652;23.318;2023-08-30T02:25:14;93646.38;;;19.34;100.00
59009;BME280;44794;42.652;23.318;2023-08-30T02:27:39;93643.44;;;19.22;100.00
59009;BME280;44794;42.652;23.318;2023-08-30T02:30:05;93633.19;;;19.13;100.00
59009;BME280;44794;42.652;23.318;2023-08-30T02:32:31;93644.63;;;19.05;100.00
59009;BME280;44794;42.652;23.318;2023-08-30T02:34:57;93638.59;;;18.90;100.00
59009;BME280;44794;42.652;23.318;2023-08-30T02:37:22;93640.88;;;18.79;100.00
59009;BME280;44794;42.652;23.318;2023-08-30T02:39:48;93642.81;;;18.71;100.00
59009;BME280;44794;42.652;23.318;2023-08-30T02:42:13;93645.69;;;18.76;100.00
59009;BME280;44794;42.652;23.318;2023-08-30T02:44:39;93649.97;;;18.77;100.00
59009;BME280;44794;42.652;23.318;2023-08-30T02:47:04;93647.81;;;18.66;100.00
59009;BME280;44794;42.652;23.318;2023-08-30T02:49:29;93638.78;;;18.75;100.00
59009;BME280;44794;42.652;23.318;2023-08-30T02:51:55;93629.91;;;18.76;100.00
59009;BME280;44794;42.652;23.318;2023-08-30T02:54:21;93625.78;;;18.67;100.00
59009;BME280;44794;42.652;23.318;2023-08-30T02:56:48;93627.78;;;18.65;100.00
59009;BME280;44794;42.652;23.318;2023-08-30T02:59:13;93627.50;;;18.60;100.00
59009;BME280;44794;42.652;23.318;2023-08-30T03:01:39;93621.53;;;18.51;100.00
59009;BME280;44794;42.652;23.318;2023-08-30T03:04:05;93614.19;;;18.47;100.00
59009;BME280;44794;42.652;23.318;2023-08-30T03:06:32;93607.22;;;18.39;100.00
59009;BME280;44794;42.652;23.318;2023-08-30T03:08:58;93620.09;;;18.34;100.00
59009;BME280;44794;42.652;23.318;2023-08-30T03:11:23;93626.63;;;18.24;100.00
59009;BME280;44794;42.652;23.318;2023-08-30T03:13:49;93612.91;;;18.14;100.00
59009;BME280;44794;42.652;23.318;2023-08-30T03:16:16;93609.81;;;18.10;100.00
59009;BME280;44794;42.652;23.318;2023-08-30T03:18:42;93607.28;;;18.03;100.00
59009;BME280;44794;42.652;23.318;2023-08-30T03:21:08;93599.69;;;17.93;100.00
59009;BME280;44794;42.652;23.318;2023-08-30T03:23:34;93602.38;;;17.85;100.00
59009;BME280;44794;42.652;23.318;2023-08-30T03:26:10;93604.75;;;17.80;100.00
59009;BME280;44794;42.652;23.318;2023-08-30T03:28:36;93591.81;;;17.79;100.00
59009;BME280;44794;42.652;23.318;2023-08-30T03:31:01;93590.88;;;17.72;100.00
59009;BME280;44794;42.652;23.318;2023-08-30T03:33:27;93584.97;;;17.55;100.00
59009;BME280;44794;42.652;23.318;2023-08-30T03:35:52;93580.06;;;17.52;100.00
59009;BME280;44794;42.652;23.318;2023-08-30T03:38:18;93576.81;;;17.50;100.00
59009;BME280;44794;42.652;23.318;2023-08-30T03:40:43;93577.19;;;17.47;100.00
59009;BME280;44794;42.652;23.318;2023-08-30T03:43:08;93570.63;;;17.43;100.00
59009;BME280;44794;42.652;23.318;2023-08-30T03:45:35;93580.53;;;17.41;100.00
59009;BME280;44794;42.652;23.318;2023-08-30T03:48:01;93585.78;;;17.41;100.00
59009;BME280;44794;42.652;23.318;2023-08-30T03:50:26;93582.13;;;17.42;100.00
59009;BME280;44794;42.652;23.318;2023-08-30T03:52:51;93575.44;;;17.40;100.00
59009;BME280;44794;42.652;23.318;2023-08-30T03:55:17;93575.44;;;17.40;100.00
59009;BME280;44794;42.652;23.318;2023-08-30T03:57:42;93591.03;;;17.41;100.00
59009;BME280;44794;42.652;23.318;2023-08-30T04:00:09;93592.63;;;17.42;100.00
59009;BME280;44794;42.652;23.318;2023-08-30T04:02:36;93596.34;;;17.48;100.00
59009;BME280;44794;42.652;23.318;2023-08-30T04:05:01;93607.31;;;17.51;100.00
59009;BME280;44794;42.652;23.318;2023-08-30T04:07:26;93600.38;;;17.58;100.00
59009;BME280;44794;42.652;23.318;2023-08-30T04:09:52;93598.56;;;17.73;100.00
59009;BME280;44794;42.652;23.318;2023-08-30T04:12:17;93588.25;;;17.86;100.00
59009;BME280;44794;42.652;23.318;2023-08-30T04:14:42;93588.16;;;18.08;100.00
59009;BME280;44794;42.652;23.318;2023-08-30T04:17:08;93608.16;;;18.32;100.00
59009;BME280;44794;42.652;23.318;2023-08-30T04:19:33;93627.38;;;18.68;100.00
59009;BME280;44794;42.652;23.318;2023-08-30T04:21:59;93645.75;;;19.11;100.00
59009;BME280;44794;42.652;23.318;2023-08-30T04:24:24;93670.91;;;19.55;100.00
59009;BME280;44794;42.652;23.318;2023-08-30T04:26:49;93689.78;;;20.00;100.00
59009;BME280;44794;42.652;23.318;2023-08-30T04:29:17;93704.88;;;20.40;96.37
59009;BME280;44794;42.652;23.318;2023-08-30T04:31:43;93720.47;;;20.69;92.58
59009;BME280;44794;42.652;23.318;2023-08-30T04:34:08;93722.47;;;20.94;90.16
59009;BME280;44794;42.652;23.318;2023-08-30T04:36:34;93734.88;;;20.94;87.91
59009;BME280;44794;42.652;23.318;2023-08-30T04:38:59;93741.75;;;20.95;87.45
59009;BME280;44794;42.652;23.318;2023-08-30T04:41:25;93746.28;;;21.01;86.74
59009;BME280;44794;42.652;23.318;2023-08-30T04:43:50;93751.72;;;20.99;87.52
59009;BME280;44794;42.652;23.318;2023-08-30T04:46:15;93755.09;;;20.80;84.40
59009;BME280;44794;42.652;23.318;2023-08-30T04:48:41;93748.94;;;20.73;84.24
59009;BME280;44794;42.652;23.318;2023-08-30T04:51:06;93745.94;;;20.76;85.50
59009;BME280;44794;42.652;23.318;2023-08-30T04:53:32;93748.34;;;20.50;83.03
59009;BME280;44794;42.652;23.318;2023-08-30T04:55:57;93744.84;;;20.43;82.76
59009;BME280;44794;42.652;23.318;2023-08-30T04:58:22;93751.75;;;20.38;80.78
59009;BME280;44794;42.652;23.318;2023-08-30T05:00:48;93758.81;;;20.38;80.56
59009;BME280;44794;42.652;23.318;2023-08-30T05:03:13;93754.94;;;20.34;78.98
59009;BME280;44794;42.652;23.318;2023-08-30T05:05:39;93754.69;;;20.29;77.29
59009;BME280;44794;42.652;23.318;2023-08-30T05:08:04;93751.00;;;20.23;77.44
59009;BME280;44794;42.652;23.318;2023-08-30T05:10:30;93748.22;;;20.10;78.07
59009;BME280;44794;42.652;23.318;2023-08-30T05:12:55;93740.28;;;20.04;77.63
59009;BME280;44794;42.652;23.318;2023-08-30T05:15:21;93745.16;;;20.07;77.69
59009;BME280;44794;42.652;23.318;2023-08-30T05:17:47;93735.66;;;20.06;78.67
59009;BME280;44794;42.652;23.318;2023-08-30T05:20:12;93735.50;;;20.14;78.56
59009;BME280;44794;42.652;23.318;2023-08-30T05:22:38;93747.63;;;20.36;77.73
59009;BME280;44794;42.652;23.318;2023-08-30T05:25:04;93748.78;;;20.54;76.47
59009;BME280;44794;42.652;23.318;2023-08-30T05:27:29;93746.44;;;20.65;76.62
59009;BME280;44794;42.652;23.318;2023-08-30T05:29:55;93759.28;;;20.75;76.34
59009;BME280;44794;42.652;23.318;2023-08-30T05:32:21;93770.16;;;20.86;76.58
59009;BME280;44794;42.652;23.318;2023-08-30T05:34:47;93773.25;;;20.96;75.71
59009;BME280;44794;42.652;23.318;2023-08-30T05:37:12;93769.72;;;20.83;75.59
59009;BME280;44794;42.652;23.318;2023-08-30T05:39:38;93775.06;;;20.89;75.58
59009;BME280;44794;42.652;23.318;2023-08-30T05:42:03;93772.75;;;21.14;74.38
59009;BME280;44794;42.652;23.318;2023-08-30T05:44:29;93773.34;;;22.35;68.87
59009;BME280;44794;42.652;23.318;2023-08-30T05:46:54;93780.47;;;23.55;61.56
59009;BME280;44794;42.652;23.318;2023-08-30T05:49:20;93792.91;;;24.67;55.74
59009;BME280;44794;42.652;23.318;2023-08-30T05:51:45;93798.94;;;25.47;51.69
59009;BME280;44794;42.652;23.318;2023-08-30T05:54:11;93802.38;;;26.48;48.65
59009;BME280;44794;42.652;23.318;2023-08-30T05:56:36;93805.72;;;27.76;44.39
59009;BME280;44794;42.652;23.318;2023-08-30T05:59:01;93806.41;;;27.83;44.08
59009;BME280;44794;42.652;23.318;2023-08-30T06:01:27;93815.84;;;29.13;41.67
59009;BME280;44794;42.652;23.318;2023-08-30T06:03:52;93807.41;;;29.21;40.81
59009;BME280;44794;42.652;23.318;2023-08-30T06:06:18;93818.84;;;28.56;40.40
59009;BME280;44794;42.652;23.318;2023-08-30T06:08:44;93815.69;;;28.59;40.63
59009;BME280;44794;42.652;23.318;2023-08-30T06:11:09;93817.03;;;29.71;38.64
59009;BME280;44794;42.652;23.318;2023-08-30T06:13:34;93810.78;;;30.03;37.53
59009;BME280;44794;42.652;23.318;2023-08-30T06:16:00;93802.63;;;29.23;38.76
59009;BME280;44794;42.652;23.318;2023-08-30T06:18:29;93801.63;;;28.63;40.03
59009;BME280;44794;42.652;23.318;2023-08-30T06:20:55;93804.47;;;28.90;39.77
59009;BME280;44794;42.652;23.318;2023-08-30T06:23:20;93811.66;;;30.09;38.23
59009;BME280;44794;42.652;23.318;2023-08-30T06:25:53;93823.19;;;30.78;36.96
59009;BME280;44794;42.652;23.318;2023-08-30T06:28:19;93829.69;;;32.22;35.20
59009;BME280;44794;42.652;23.318;2023-08-30T06:30:44;93832.19;;;32.44;33.12
59009;BME280;44794;42.652;23.318;2023-08-30T06:33:10;93833.50;;;33.37;31.50
59009;BME280;44794;42.652;23.318;2023-08-30T06:35:36;93837.22;;;33.81;31.24
59009;BME280;44794;42.652;23.318;2023-08-30T06:38:04;93840.19;;;33.35;31.36
59009;BME280;44794;42.652;23.318;2023-08-30T06:40:30;93842.38;;;33.72;30.98
59009;BME280;44794;42.652;23.318;2023-08-30T06:42:55;93828.06;;;33.82;30.74
59009;BME280;44794;42.652;23.318;2023-08-30T06:45:22;93835.31;;;34.01;30.20
59009;BME280;44794;42.652;23.318;2023-08-30T06:47:48;93830.53;;;33.73;30.43
59009;BME280;44794;42.652;23.318;2023-08-30T06:50:14;93839.97;;;33.56;30.60
59009;BME280;44794;42.652;23.318;2023-08-30T06:52:40;93838.53;;;35.68;28.20
59009;BME280;44794;42.652;23.318;2023-08-30T06:55:06;93830.69;;;36.00;27.66
59009;BME280;44794;42.652;23.318;2023-08-30T06:57:31;93833.47;;;36.18;27.67
59009;BME280;44794;42.652;23.318;2023-08-30T06:59:57;93831.56;;;35.23;28.64
59009;BME280;44794;42.652;23.318;2023-08-30T07:02:26;93823.41;;;32.63;32.13
59009;BME280;44794;42.652;23.318;2023-08-30T07:04:52;93813.59;;;31.81;33.60
59009;BME280;44794;42.652;23.318;2023-08-30T07:07:18;93810.63;;;30.57;35.33
59009;BME280;44794;42.652;23.318;2023-08-30T07:09:43;93803.03;;;29.85;37.37
59009;BME280;44794;42.652;23.318;2023-08-30T07:12:09;93795.09;;;29.03;38.02
59009;BME280;44794;42.652;23.318;2023-08-30T07:14:34;93792.16;;;28.89;38.50
59009;BME280;44794;42.652;23.318;2023-08-30T07:17:00;93794.13;;;28.49;39.52
59009;BME280;44794;42.652;23.318;2023-08-30T07:19:25;93779.28;;;27.74;40.48
59009;BME280;44794;42.652;23.318;2023-08-30T07:21:51;93782.38;;;27.83;41.19
59009;BME280;44794;42.652;23.318;2023-08-30T07:24:16;93782.53;;;27.76;41.61
59009;BME280;44794;42.652;23.318;2023-08-30T07:26:41;93792.97;;;27.43;41.45
59009;BME280;44794;42.652;23.318;2023-08-30T07:29:09;93792.78;;;27.22;42.29
59009;BME280;44794;42.652;23.318;2023-08-30T07:31:34;93800.19;;;27.20;42.40
59009;BME280;44794;42.652;23.318;2023-08-30T07:33:59;93792.31;;;26.50;43.58
59009;BME280;44794;42.652;23.318;2023-08-30T07:36:26;93790.13;;;26.00;45.35
59009;BME280;44794;42.652;23.318;2023-08-30T07:38:52;93788.22;;;25.89;45.71
59009;BME280;44794;42.652;23.318;2023-08-30T07:41:17;93784.59;;;25.83;45.69
59009;BME280;44794;42.652;23.318;2023-08-30T07:43:42;93780.63;;;25.39;46.03
59009;BME280;44794;42.652;23.318;2023-08-30T07:46:08;93782.66;;;25.55;45.87
59009;BME280;44794;42.652;23.318;2023-08-30T07:48:33;93776.84;;;25.82;44.22
59009;BME280;44794;42.652;23.318;2023-08-30T07:50:59;93773.91;;;25.54;46.35
59009;BME280;44794;42.652;23.318;2023-08-30T07:53:24;93774.03;;;24.99;48.94
59009;BME280;44794;42.652;23.318;2023-08-30T07:55:50;93777.81;;;24.92;47.32
59009;BME280;44794;42.652;23.318;2023-08-30T07:58:16;93775.13;;;25.16;46.79
59009;BME280;44794;42.652;23.318;2023-08-30T08:00:42;93784.31;;;25.56;46.30
59009;BME280;44794;42.652;23.318;2023-08-30T08:03:07;93782.97;;;25.65;45.28
59009;BME280;44794;42.652;23.318;2023-08-30T08:05:33;93784.75;;;25.71;45.63
59009;BME280;44794;42.652;23.318;2023-08-30T08:08:00;93791.91;;;25.70;44.51
59009;BME280;44794;42.652;23.318;2023-08-30T08:10:32;93782.81;;;25.24;45.18
59009;BME280;44794;42.652;23.318;2023-08-30T08:12:58;93788.28;;;25.29;44.48
59009;BME280;44794;42.652;23.318;2023-08-30T08:15:24;93789.50;;;25.08;45.43
59009;BME280;44794;42.652;23.318;2023-08-30T08:17:49;93786.28;;;24.58;46.83
59009;BME280;44794;42.652;23.318;2023-08-30T08:20:15;93787.22;;;24.88;46.21
59009;BME280;44794;42.652;23.318;2023-08-30T08:22:40;93789.72;;;24.83;47.06
59009;BME280;44794;42.652;23.318;2023-08-30T08:25:06;93796.53;;;24.97;47.31
59009;BME280;44794;42.652;23.318;2023-08-30T08:27:35;93786.56;;;25.16;45.74
59009;BME280;44794;42.652;23.318;2023-08-30T08:30:01;93798.97;;;24.98;47.37
59009;BME280;44794;42.652;23.318;2023-08-30T08:32:29;93803.72;;;24.96;47.24
59009;BME280;44794;42.652;23.318;2023-08-30T08:34:55;93795.88;;;25.25;47.15
59009;BME280;44794;42.652;23.318;2023-08-30T08:37:21;93797.47;;;25.51;47.07
59009;BME280;44794;42.652;23.318;2023-08-30T08:39:46;93795.34;;;25.77;46.66
59009;BME280;44794;42.652;23.318;2023-08-30T08:42:13;93797.38;;;25.93;45.10
59009;BME280;44794;42.652;23.318;2023-08-30T08:44:39;93798.19;;;25.76;46.04
59009;BME280;44794;42.652;23.318;2023-08-30T08:47:05;93795.84;;;25.50;46.90
59009;BME280;44794;42.652;23.318;2023-08-30T08:49:31;93790.44;;;25.56;46.75
59009;BME280;44794;42.652;23.318;2023-08-30T08:51:57;93788.97;;;25.60;47.21
59009;BME280;44794;42.652;23.318;2023-08-30T08:54:22;93787.63;;;25.69;47.24
59009;BME280;44794;42.652;23.318;2023-08-30T08:56:48;93790.28;;;25.51;46.92
59009;BME280;44794;42.652;23.318;2023-08-30T08:59:14;93782.75;;;25.48;47.91
59009;BME280;44794;42.652;23.318;2023-08-30T09:01:39;93778.81;;;25.33;48.72
59009;BME280;44794;42.652;23.318;2023-08-30T09:04:07;93779.63;;;25.15;48.88
59009;BME280;44794;42.652;23.318;2023-08-30T09:06:33;93779.00;;;25.38;48.86
59009;BME280;44794;42.652;23.318;2023-08-30T09:08:59;93783.94;;;25.70;47.15
59009;BME280;44794;42.652;23.318;2023-08-30T09:11:25;93776.97;;;25.87;47.22
59009;BME280;44794;42.652;23.318;2023-08-30T09:13:50;93782.91;;;26.18;46.53
59009;BME280;44794;42.652;23.318;2023-08-30T09:16:16;93775.22;;;26.10;46.21
59009;BME280;44794;42.652;23.318;2023-08-30T09:18:42;93779.16;;;26.08;46.63
59009;BME280;44794;42.652;23.318;2023-08-30T09:21:09;93773.09;;;26.19;46.57
59009;BME280;44794;42.652;23.318;2023-08-30T09:23:35;93768.47;;;25.96;46.91
59009;BME280;44794;42.652;23.318;2023-08-30T09:26:01;93771.28;;;26.01;46.33
59009;BME280;44794;42.652;23.318;2023-08-30T09:28:28;93770.00;;;25.39;47.31
59009;BME280;44794;42.652;23.318;2023-08-30T09:30:53;93769.00;;;25.51;47.43
59009;BME280;44794;42.652;23.318;2023-08-30T09:33:22;93768.88;;;25.82;47.51
59009;BME280;44794;42.652;23.318;2023-08-30T09:35:48;93778.66;;;26.29;46.41
59009;BME280;44794;42.652;23.318;2023-08-30T09:38:19;93775.44;;;26.67;45.08
59009;BME280;44794;42.652;23.318;2023-08-30T09:40:45;93780.59;;;27.03;43.86
59009;BME280;44794;42.652;23.318;2023-08-30T09:43:12;93774.31;;;26.98;43.77
59009;BME280;44794;42.652;23.318;2023-08-30T09:45:38;93784.19;;;27.20;43.22
59009;BME280;44794;42.652;23.318;2023-08-30T09:48:05;93767.13;;;27.55;41.80
59009;BME280;44794;42.652;23.318;2023-08-30T09:50:33;93768.91;;;27.89;41.92
59009;BME280;44794;42.652;23.318;2023-08-30T09:53:09;93770.59;;;28.07;41.73
59009;BME280;44794;42.652;23.318;2023-08-30T09:55:35;93764.91;;;28.03;42.19
59009;BME280;44794;42.652;23.318;2023-08-30T09:58:04;93759.31;;;27.77;42.38
59009;BME280;44794;42.652;23.318;2023-08-30T10:00:33;93753.91;;;27.26;43.34
59009;BME280;44794;42.652;23.318;2023-08-30T10:02:59;93756.44;;;26.87;44.55
59009;BME280;44794;42.652;23.318;2023-08-30T10:05:26;93743.69;;;26.89;44.65
59009;BME280;44794;42.652;23.318;2023-08-30T10:07:55;93741.28;;;26.87;44.79
59009;BME280;44794;42.652;23.318;2023-08-30T10:10:25;93744.53;;;26.89;44.16
59009;BME280;44794;42.652;23.318;2023-08-30T10:12:51;93758.91;;;26.88;44.55
59009;BME280;44794;42.652;23.318;2023-08-30T10:15:20;93743.59;;;27.18;44.37
59009;BME280;44794;42.652;23.318;2023-08-30T10:17:48;93744.88;;;27.61;43.40
59009;BME280;44794;42.652;23.318;2023-08-30T10:20:16;93745.03;;;27.71;42.58
59009;BME280;44794;42.652;23.318;2023-08-30T10:22:43;93731.50;;;27.73;42.87
59009;BME280;44794;42.652;23.318;2023-08-30T10:25:25;93744.16;;;27.54;43.21
59009;BME280;44794;42.652;23.318;2023-08-30T10:27:52;93742.28;;;27.43;42.91
59009;BME280;44794;42.652;23.318;2023-08-30T10:30:20;93746.94;;;27.36;42.95
59009;BME280;44794;42.652;23.318;2023-08-30T10:32:46;93743.94;;;27.44;42.42
59009;BME280;44794;42.652;23.318;2023-08-30T10:35:13;93741.88;;;27.86;42.30
59009;BME280;44794;42.652;23.318;2023-08-30T10:37:39;93740.78;;;27.98;41.94
59009;BME280;44794;42.652;23.318;2023-08-30T10:40:05;93737.75;;;28.34;41.10
59009;BME280;44794;42.652;23.318;2023-08-30T10:42:31;93741.84;;;28.69;40.10
59009;BME280;44794;42.652;23.318;2023-08-30T10:44:59;93741.41;;;28.61;40.53
59009;BME280;44794;42.652;23.318;2023-08-30T10:47:27;93735.28;;;28.60;40.55
59009;BME280;44794;42.652;23.318;2023-08-30T10:50:00;93734.38;;;28.55;40.20
59009;BME280;44794;42.652;23.318;2023-08-30T10:52:29;93740.53;;;28.39;39.50
59009;BME280;44794;42.652;23.318;2023-08-30T10:55:12;93736.56;;;28.74;39.61
59009;BME280;44794;42.652;23.318;2023-08-30T10:57:41;93731.63;;;28.99;38.98
59009;BME280;44794;42.652;23.318;2023-08-30T11:02:35;93740.34;;;29.44;38.21
59009;BME280;44794;42.652;23.318;2023-08-30T11:05:02;93735.22;;;29.59;37.66
59009;BME280;44794;42.652;23.318;2023-08-30T11:07:29;93735.31;;;29.68;37.53
59009;BME280;44794;42.652;23.318;2023-08-30T11:09:54;93733.59;;;29.58;36.56
59009;BME280;44794;42.652;23.318;2023-08-30T11:12:20;93734.56;;;28.81;37.04
59009;BME280;44794;42.652;23.318;2023-08-30T11:14:50;93731.56;;;28.78;37.65
59009;BME280;44794;42.652;23.318;2023-08-30T11:17:16;93732.38;;;28.78;37.19
59009;BME280;44794;42.652;23.318;2023-08-30T11:19:42;93725.38;;;28.61;37.17
59009;BME280;44794;42.652;23.318;2023-08-30T11:22:08;93727.19;;;28.88;36.94
59009;BME280;44794;42.652;23.318;2023-08-30T11:24:34;93725.56;;;28.87;35.95
59009;BME280;44794;42.652;23.318;2023-08-30T11:27:00;93715.47;;;28.89;35.86
59009;BME280;44794;42.652;23.318;2023-08-30T11:29:26;93717.38;;;29.10;36.13
59009;BME280;44794;42.652;23.318;2023-08-30T11:31:52;93711.63;;;29.18;35.55
59009;BME280;44794;42.652;23.318;2023-08-30T11:34:21;93701.91;;;29.12;35.81
59009;BME280;44794;42.652;23.318;2023-08-30T11:36:50;93701.75;;;29.02;35.39
59009;BME280;44794;42.652;23.318;2023-08-30T11:39:18;93698.09;;;29.08;34.46
59009;BME280;44794;42.652;23.318;2023-08-30T11:41:44;93702.28;;;28.71;33.21
59009;BME280;44794;42.652;23.318;2023-08-30T11:44:10;93702.63;;;28.42;34.07
59009;BME280;44794;42.652;23.318;2023-08-30T11:46:35;93690.81;;;28.10;34.08
59009;BME280;44794;42.652;23.318;2023-08-30T11:49:01;93682.63;;;28.00;34.45
59009;BME280;44794;42.652;23.318;2023-08-30T11:51:28;93679.16;;;28.00;34.72
59009;BME280;44794;42.652;23.318;2023-08-30T11:53:53;93681.00;;;27.99;35.42
59009;BME280;44794;42.652;23.318;2023-08-30T11:56:19;93676.94;;;27.97;34.75
59009;BME280;44794;42.652;23.318;2023-08-30T11:58:45;93682.53;;;27.56;34.78
59009;BME280;44794;42.652;23.318;2023-08-30T12:01:11;93690.22;;;27.41;35.19
59009;BME280;44794;42.652;23.318;2023-08-30T12:03:37;93683.59;;;27.55;35.70
59009;BME280;44794;42.652;23.318;2023-08-30T12:06:09;93686.03;;;27.84;35.01
59009;BME280;44794;42.652;23.318;2023-08-30T12:08:34;93683.34;;;27.96;34.34
59009;BME280;44794;42.652;23.318;2023-08-30T12:11:01;93691.38;;;27.84;34.29
59009;BME280;44794;42.652;23.318;2023-08-30T12:13:28;93675.03;;;27.81;34.30
59009;BME280;44794;42.652;23.318;2023-08-30T12:15:58;93666.34;;;28.02;34.46
59009;BME280;44794;42.652;23.318;2023-08-30T12:18:25;93663.50;;;28.19;34.76
59009;BME280;44794;42.652;23.318;2023-08-30T12:20:56;93664.56;;;28.35;33.62
59009;BME280;44794;42.652;23.318;2023-08-30T12:23:27;93666.44;;;28.51;33.90
59009;BME280;44794;42.652;23.318;2023-08-30T12:26:06;93664.31;;;28.36;34.48
59009;BME280;44794;42.652;23.318;2023-08-30T12:28:33;93659.53;;;28.55;34.50
59009;BME280;44794;42.652;23.318;2023-08-30T12:31:00;93665.31;;;28.63;32.68
59009;BME280;44794;42.652;23.318;2023-08-30T12:33:25;93652.00;;;28.68;32.92
59009;BME280;44794;42.652;23.318;2023-08-30T12:35:54;93650.09;;;28.80;32.46
59009;BME280;44794;42.652;23.318;2023-08-30T12:38:20;93655.34;;;29.13;32.39
59009;BME280;44794;42.652;23.318;2023-08-30T12:40:47;93643.84;;;29.34;34.36
59009;BME280;44794;42.652;23.318;2023-08-30T12:43:14;93634.22;;;29.33;35.26
59009;BME280;44794;42.652;23.318;2023-08-30T12:45:40;93635.38;;;29.37;33.74
59009;BME280;44794;42.652;23.318;2023-08-30T12:48:10;93623.88;;;29.20;34.08
59009;BME280;44794;42.652;23.318;2023-08-30T12:50:37;93626.13;;;29.28;34.69